Time;durP1;ratioP1;P1;durP2;ratioP2;P2;SDS_P1;SDS_P2;PMS_P1;PMS_P2;Temp;Humidity;BMP_temperature;BMP_pressure;BME280_temperature;BME280_humidity;BME280_pressure;Samples;Min_cycle;Max_cycle;Signal;HPM_P1;HPM_P2
2022/10/28 00:00:35;;;;;;;6.45;3.17;;;;;;;21.63;nan;100574.44;5054829;28;20061;-82
2022/10/28 00:03:02;;;;;;;8.25;3.53;;;;;;;21.61;nan;100571.19;5022798;28;20061;-82
2022/10/28 00:05:35;;;;;;;9.38;3.40;;;;;;;21.65;nan;100577.72;5014509;28;20057;-82
2022/10/28 00:08:02;;;;;;;6.78;3.45;;;;;;;21.65;nan;100574.88;5018492;28;20061;-81
2022/10/28 00:10:30;;;;;;;9.98;3.38;;;;;;;21.69;nan;100564.38;5014254;28;20064;-81
2022/10/28 00:12:58;;;;;;;8.52;3.00;;;;;;;21.70;nan;100563.19;5019739;28;20056;-82
2022/10/28 00:15:25;;;;;;;7.95;3.42;;;;;;;21.67;nan;100576.13;5027449;28;20056;-82
2022/10/28 00:17:52;;;;;;;8.75;3.40;;;;;;;21.67;nan;100572.44;5019901;28;20058;-81
2022/10/28 00:20:19;;;;;;;10.20;3.40;;;;;;;21.53;nan;100575.16;5018125;28;20053;-82
2022/10/28 00:22:48;;;;;;;9.27;3.50;;;;;;;21.51;nan;100571.88;5018003;28;20410;-82
2022/10/28 00:25:15;;;;;;;7.93;3.05;;;;;;;21.42;nan;100564.50;5012996;28;20526;-82
2022/10/28 00:27:43;;;;;;;11.90;3.30;;;;;;;21.36;nan;100580.16;5016326;28;20066;-81
2022/10/28 00:30:11;;;;;;;10.23;3.47;;;;;;;21.43;nan;100566.09;5016346;28;20069;-81
2022/10/28 00:32:38;;;;;;;8.50;3.65;;;;;;;21.44;nan;100555.59;5020209;28;20065;-81
2022/10/28 00:35:07;;;;;;;13.00;3.67;;;;;;;21.41;nan;100554.31;5023073;28;20495;-82
2022/10/28 00:37:35;;;;;;;12.40;3.70;;;;;;;21.42;nan;100552.34;5014750;28;20059;-82
2022/10/28 00:40:07;;;;;;;9.32;3.22;;;;;;;21.35;nan;100547.34;5015190;28;20064;-81
2022/10/28 00:42:34;;;;;;;12.48;3.28;;;;;;;21.45;nan;100541.03;5016849;28;20060;-82
2022/10/28 00:45:04;;;;;;;9.88;3.13;;;;;;;21.47;nan;100544.28;5033140;28;20057;-82
2022/10/28 00:47:39;;;;;;;10.25;3.42;;;;;;;21.50;nan;100554.03;5024300;28;20061;-81
2022/10/28 00:50:26;;;;;;;8.93;3.00;;;;;;;21.55;nan;100541.56;5020243;28;20513;-82
2022/10/28 00:52:58;;;;;;;7.88;3.13;;;;;;;21.53;nan;100535.47;5025134;28;20057;-82
2022/10/28 00:55:27;;;;;;;9.65;2.90;;;;;;;21.56;nan;100534.69;5014238;28;20431;-82
2022/10/28 00:57:56;;;;;;;;;;;;;;;21.57;nan;100536.31;5012844;28;20053;-82
2022/10/28 01:00:24;;;;;;;9.88;3.00;;;;;;;21.61;nan;100531.50;5013977;28;19921;-82
2022/10/28 01:02:52;;;;;;;7.85;2.63;;;;;;;21.70;nan;100526.31;5029290;28;20049;-82
2022/10/28 01:05:21;;;;;;;8.60;3.10;;;;;;;21.77;nan;100517.88;5040200;28;20048;-82
2022/10/28 01:07:50;;;;;;;;;;;;;;;21.77;nan;100523.56;5035030;28;20068;-82
2022/10/28 01:10:17;;;;;;;9.52;3.55;;;;;;;21.76;nan;100518.28;5031770;28;19928;-82
2022/10/28 01:13:03;;;;;;;8.95;3.00;;;;;;;21.81;nan;100509.41;5031469;28;20413;-82
2022/10/28 01:15:40;;;;;;;8.32;3.28;;;;;;;21.81;nan;100513.06;5035690;28;20072;-81
2022/10/28 01:18:17;;;;;;;11.68;3.20;;;;;;;21.79;nan;100511.81;5017698;28;20517;-82
2022/10/28 01:21:08;;;;;;;7.15;3.05;;;;;;;21.87;nan;100508.66;5032831;28;20057;-82
2022/10/28 01:23:45;;;;;;;8.88;2.83;;;;;;;21.93;nan;100511.16;5039727;28;20045;-81
2022/10/28 01:26:38;;;;;;;9.43;3.10;;;;;;;22.01;nan;100498.66;5033021;28;20061;-82
2022/10/28 01:29:36;;;;;;;8.73;2.78;;;;;;;22.04;nan;100493.00;5043365;28;20418;-82
2022/10/28 01:32:13;;;;;;;7.25;3.05;;;;;;;22.03;nan;100493.44;5049903;28;20057;-81
2022/10/28 01:34:48;;;;;;;10.23;2.80;;;;;;;22.02;nan;100486.09;5030484;28;20065;-82
2022/10/28 01:37:21;;;;;;;8.32;2.80;;;;;;;22.12;nan;100485.38;5036089;28;20497;-82
2022/10/28 01:39:54;;;;;;;9.25;2.50;;;;;;;22.15;nan;100483.78;5031116;28;20057;-82
2022/10/28 01:42:27;;;;;;;9.65;3.05;;;;;;;22.11;nan;100480.91;5040471;28;20096;-83
2022/10/28 01:45:03;;;;;;;6.95;3.00;;;;;;;22.07;nan;100497.09;5032717;28;20058;-82
2022/10/28 01:47:38;;;;;;;9.30;3.10;;;;;;;22.04;nan;100493.00;5034193;28;20064;-82
2022/10/28 01:50:09;;;;;;;9.52;3.35;;;;;;;21.97;nan;100487.28;5028298;28;20080;-82
2022/10/28 01:52:40;;;;;;;7.45;3.28;;;;;;;21.89;nan;100489.22;5035949;28;20510;-82
2022/10/28 01:55:14;;;;;;;11.07;3.40;;;;;;;21.83;nan;100496.47;5036884;28;20068;-82
2022/10/28 01:57:43;;;;;;;9.50;3.10;;;;;;;21.79;nan;100503.31;5033036;28;20058;-83
2022/10/28 02:00:12;;;;;;;8.75;2.80;;;;;;;21.75;nan;100508.94;5032776;28;20464;-82
2022/10/28 02:02:42;;;;;;;7.47;3.03;;;;;;;21.73;nan;100502.03;5031926;28;20068;-82
2022/10/28 02:05:36;;;;;;;7.10;2.80;;;;;;;21.67;nan;100505.25;5030866;28;20076;-82
2022/10/28 02:08:14;;;;;;;6.05;2.72;;;;;;;21.67;nan;100498.75;5029287;28;20065;-82
2022/10/28 02:10:50;;;;;;;7.30;2.70;;;;;;;21.67;nan;100490.22;5032654;28;20057;-83
2022/10/28 02:13:20;;;;;;;7.50;3.28;;;;;;;21.64;nan;100485.34;5039137;28;20053;-82
2022/10/28 02:15:58;;;;;;;7.20;2.67;;;;;;;21.60;nan;100473.97;5042324;28;20387;-82
2022/10/28 02:18:35;;;;;;;10.25;3.47;;;;;;;21.57;nan;100473.97;5038219;28;20407;-82
2022/10/28 02:21:06;;;;;;;9.95;3.05;;;;;;;21.57;nan;100473.97;5036019;28;20064;-82
2022/10/28 02:23:42;;;;;;;6.20;2.70;;;;;;;21.68;nan;100469.19;5045628;28;20057;-82
2022/10/28 02:26:15;;;;;;;11.55;2.95;;;;;;;21.70;nan;100472.47;5037618;28;20490;-82
2022/10/28 02:28:50;;;;;;;9.10;3.17;;;;;;;21.73;nan;100465.19;5043198;28;20080;-82
2022/10/28 02:31:24;;;;;;;6.55;2.80;;;;;;;21.78;nan;100468.50;5040734;28;20060;-82
2022/10/28 02:33:57;;;;;;;8.77;2.85;;;;;;;21.74;nan;100483.84;5034856;28;20490;-82
2022/10/28 02:36:28;;;;;;;8.50;3.15;;;;;;;21.83;nan;100470.13;5040707;28;20056;-82
2022/10/28 02:38:58;;;;;;;7.90;3.08;;;;;;;21.86;nan;100466.53;5035227;28;20045;-82
2022/10/28 02:41:31;;;;;;;10.70;3.40;;;;;;;21.85;nan;100462.06;5035753;28;20513;-83
2022/10/28 02:44:02;;;;;;;8.13;2.97;;;;;;;21.89;nan;100468.56;5039023;28;20057;-82
2022/10/28 02:46:33;;;;;;;10.75;3.22;;;;;;;21.95;nan;100469.03;5041537;28;20045;-82
2022/10/28 02:49:05;;;;;;;6.85;3.17;;;;;;;22.01;nan;100470.31;5038393;28;20049;-82
2022/10/28 02:51:37;;;;;;;7.18;2.88;;;;;;;22.09;nan;100481.31;5038450;28;20517;-82
2022/10/28 02:54:09;;;;;;;10.60;3.13;;;;;;;22.11;nan;100480.91;5036842;28;20068;-82
2022/10/28 02:56:42;;;;;;;11.02;2.90;;;;;;;22.11;nan;100480.91;5035218;28;20057;-82
2022/10/28 02:59:11;;;;;;;10.65;3.08;;;;;;;22.09;nan;100472.00;5035856;28;20057;-82
2022/10/28 03:01:38;;;;;;;5.33;2.67;;;;;;;22.13;nan;100472.81;5037514;28;20060;-82
2022/10/28 03:04:07;;;;;;;8.07;2.67;;;;;;;22.17;nan;100462.31;5034420;28;20057;-82
2022/10/28 03:06:34;;;;;;;11.02;2.85;;;;;;;22.17;nan;100465.16;5035341;28;20387;-82
2022/10/28 03:09:02;;;;;;;6.90;2.60;;;;;;;22.11;nan;100463.88;5038139;28;20061;-82
2022/10/28 03:11:29;;;;;;;6.10;2.58;;;;;;;22.16;nan;100455.00;5037869;28;20414;-82
2022/10/28 03:13:56;;;;;;;9.88;3.72;;;;;;;22.15;nan;100449.72;5038586;28;20398;-82
2022/10/28 03:16:25;;;;;;;9.60;3.03;;;;;;;22.17;nan;100442.44;5037144;28;20053;-82
2022/10/28 03:18:52;;;;;;;9.48;2.97;;;;;;;22.20;nan;100444.50;5035973;28;20049;-83
2022/10/28 03:21:21;;;;;;;7.32;2.60;;;;;;;22.24;nan;100438.91;5038839;28;20391;-82
2022/10/28 03:23:48;;;;;;;6.63;2.67;;;;;;;22.23;nan;100446.56;5031652;28;20048;-82
2022/10/28 03:26:16;;;;;;;6.60;2.60;;;;;;;22.15;nan;100433.50;5036465;28;20053;-82
2022/10/28 03:28:43;;;;;;;10.75;3.08;;;;;;;22.15;nan;100444.06;5035816;28;20500;-82
2022/10/28 03:31:10;;;;;;;5.72;2.70;;;;;;;22.10;nan;100439.56;5040737;28;20058;-81
2022/10/28 03:33:37;;;;;;;6.63;2.80;;;;;;;22.04;nan;100438.31;5042550;28;20049;-82
2022/10/28 03:36:05;;;;;;;9.07;3.25;;;;;;;21.96;nan;100433.78;5034413;28;20057;-82
2022/10/28 03:38:34;;;;;;;10.55;3.17;;;;;;;21.85;nan;100434.50;5035763;28;20053;-82
2022/10/28 03:41:01;;;;;;;8.00;2.83;;;;;;;21.70;nan;100432.78;5037419;28;20053;-81
2022/10/28 03:43:29;;;;;;;8.63;3.17;;;;;;;21.63;nan;100427.06;5022518;28;20140;-81
2022/10/28 03:45:56;;;;;;;5.78;2.72;;;;;;;21.52;nan;100431.78;5048513;28;20053;-81
2022/10/28 03:48:23;;;;;;;5.88;2.92;;;;;;;21.42;nan;100428.47;5037732;28;20068;-81
2022/10/28 03:50:52;;;;;;;9.55;3.03;;;;;;;21.42;nan;100433.34;5037490;28;20079;-81
2022/10/28 03:53:20;;;;;;;9.13;2.80;;;;;;;21.41;nan;100426.78;5024714;28;20505;-82
2022/10/28 03:55:53;;;;;;;9.60;2.70;;;;;;;21.46;nan;100428.47;5034254;28;20418;-82
2022/10/28 03:58:20;;;;;;;8.02;3.15;;;;;;;21.51;nan;100421.66;5037147;28;20058;-82
2022/10/28 04:00:48;;;;;;;8.63;3.22;;;;;;;21.51;nan;100427.34;5018597;28;20406;-81
2022/10/28 04:03:15;;;;;;;9.93;3.03;;;;;;;21.47;nan;100427.28;5033977;28;20068;-82
2022/10/28 04:05:43;;;;;;;7.97;2.47;;;;;;;21.44;nan;100426.06;5034308;28;20494;-82
2022/10/28 04:08:10;;;;;;;9.48;2.95;;;;;;;21.43;nan;100427.25;5006003;28;20483;-82
2022/10/28 04:10:37;;;;;;;10.80;3.05;;;;;;;21.48;nan;100426.06;5014346;28;20065;-82
2022/10/28 04:13:07;;;;;;;8.77;3.70;;;;;;;21.48;nan;100420.41;5004035;28;20440;-82
2022/10/28 04:15:34;;;;;;;10.70;3.33;;;;;;;21.46;nan;100422.81;5014559;28;20050;-81
2022/10/28 04:18:01;;;;;;;8.65;2.80;;;;;;;21.43;nan;100429.28;5016097;28;20494;-82
2022/10/28 04:20:29;;;;;;;8.05;2.78;;;;;;;21.41;nan;100426.78;5012663;28;20422;-82
2022/10/28 04:22:57;;;;;;;9.30;2.92;;;;;;;21.35;nan;100427.53;5011856;28;20052;-82
2022/10/28 04:25:26;;;;;;;8.88;3.17;;;;;;;21.35;nan;100417.00;5010251;28;20406;-82
2022/10/28 04:27:53;;;;;;;9.80;3.55;;;;;;;21.37;nan;100420.28;5001978;28;20065;-81
2022/10/28 04:30:22;;;;;;;9.57;3.45;;;;;;;21.31;nan;100415.34;5012707;28;20049;-82
2022/10/28 04:32:49;;;;;;;11.20;3.03;;;;;;;21.23;nan;100422.97;5017649;28;20049;-82
2022/10/28 04:35:17;;;;;;;9.63;3.47;;;;;;;21.21;nan;100416.91;5014279;28;20077;-82
2022/10/28 04:37:44;;;;;;;8.77;3.40;;;;;;;21.17;nan;100404.72;5013405;28;20069;-82
2022/10/28 04:40:12;;;;;;;13.95;3.75;;;;;;;21.21;nan;100411.22;5013392;28;20514;-82
2022/10/28 04:42:40;;;;;;;8.75;2.70;;;;;;;21.09;nan;100413.13;5013373;28;20054;-82
2022/10/28 04:45:08;;;;;;;9.63;3.78;;;;;;;21.14;nan;100416.81;5005580;28;20068;-82
2022/10/28 04:47:37;;;;;;;10.97;3.27;;;;;;;21.11;nan;100411.94;5013466;28;20053;-81
2022/10/28 04:50:05;;;;;;;6.75;2.95;;;;;;;21.12;nan;100414.34;5031479;28;20064;-82
2022/10/28 04:52:32;;;;;;;14.10;3.38;;;;;;;21.04;nan;100418.31;5032617;28;20485;-82
2022/10/28 04:54:59;;;;;;;9.10;3.28;;;;;;;21.08;nan;100408.66;5033536;28;20391;-81
2022/10/28 04:57:27;;;;;;;8.23;3.20;;;;;;;21.13;nan;100406.69;5033090;28;20057;-81
2022/10/28 04:59:54;;;;;;;7.18;3.38;;;;;;;21.22;nan;100412.84;5025393;28;20383;-82
2022/10/28 05:02:22;;;;;;;10.38;3.40;;;;;;;21.18;nan;100418.47;5033169;28;20057;-82
2022/10/28 05:04:51;;;;;;;8.38;3.75;;;;;;;21.24;nan;100422.56;5022093;28;20394;-82
2022/10/28 05:07:18;;;;;;;6.22;2.92;;;;;;;21.26;nan;100434.34;5013551;28;20058;-82
2022/10/28 05:09:45;;;;;;;11.60;3.03;;;;;;;21.25;nan;100424.22;5021019;28;20057;-81
2022/10/28 05:12:12;;;;;;;7.40;2.75;;;;;;;21.15;nan;100424.91;5014202;28;20050;-81
2022/10/28 05:14:40;;;;;;;10.63;3.63;;;;;;;21.11;nan;100441.06;5007599;28;20057;-81
2022/10/28 05:17:08;;;;;;;10.50;3.15;;;;;;;21.12;nan;100436.19;5010217;28;20518;-81
2022/10/28 05:19:36;;;;;;;11.97;3.30;;;;;;;21.10;nan;100439.41;5004749;28;20062;-81
2022/10/28 05:22:04;;;;;;;7.57;3.03;;;;;;;21.04;nan;100429.63;5002762;28;20488;-81
2022/10/28 05:24:32;;;;;;;9.98;3.58;;;;;;;20.95;nan;100432.78;5009427;28;20053;-82
2022/10/28 05:26:59;;;;;;;11.40;3.60;;;;;;;20.84;nan;100429.81;5002455;28;20058;-81
2022/10/28 05:29:27;;;;;;;6.72;3.03;;;;;;;20.81;nan;100421.25;5008512;28;20522;-81
2022/10/28 05:31:54;;;;;;;9.20;3.65;;;;;;;20.77;nan;100426.91;4992609;28;20060;-81
2022/10/28 05:34:21;;;;;;;8.93;3.10;;;;;;;20.79;nan;100418.00;5011462;28;20045;-81
2022/10/28 05:36:49;;;;;;;9.93;3.45;;;;;;;20.75;nan;100426.47;5008830;28;20050;-81
2022/10/28 05:39:18;;;;;;;11.02;3.53;;;;;;;20.72;nan;100430.06;5013357;28;20517;-83
2022/10/28 05:41:45;;;;;;;12.73;4.60;;;;;;;20.71;nan;100427.63;5013744;28;20417;-82
2022/10/28 05:44:13;;;;;;;10.73;5.35;;;;;;;20.74;nan;100424.81;5011848;28;20053;-83
2022/10/28 05:46:40;;;;;;;9.68;4.15;;;;;;;20.68;nan;100429.19;5010565;28;20062;-82
2022/10/28 05:49:07;;;;;;;9.23;3.50;;;;;;;20.63;nan;100426.72;5011664;28;20057;-79
2022/10/28 05:51:34;;;;;;;9.25;3.63;;;;;;;20.63;nan;100433.19;5008560;28;20054;-81
2022/10/28 05:54:01;;;;;;;11.35;3.63;;;;;;;20.63;nan;100426.72;5012216;28;20085;-81
2022/10/28 05:56:30;;;;;;;8.25;3.20;;;;;;;20.55;nan;100422.94;5017459;28;20062;-81
2022/10/28 05:58:57;;;;;;;10.53;3.47;;;;;;;20.54;nan;100426.19;5020362;28;20053;-81
2022/10/28 06:01:25;;;;;;;7.22;3.35;;;;;;;20.47;nan;100432.53;5020331;28;20418;-78
2022/10/28 06:03:52;;;;;;;10.48;3.47;;;;;;;20.42;nan;100444.19;5027443;28;20065;-79
2022/10/28 06:06:19;;;;;;;6.47;3.38;;;;;;;20.38;nan;100437.66;5030987;28;20512;-79
2022/10/28 06:08:46;;;;;;;8.45;3.45;;;;;;;20.33;nan;100446.50;5031775;28;20057;-79
2022/10/28 06:11:14;;;;;;;10.75;3.33;;;;;;;20.26;nan;100442.34;5028864;28;20057;-79
2022/10/28 06:13:42;;;;;;;6.40;3.00;;;;;;;20.20;nan;100438.22;5029814;28;20050;-78
2022/10/28 06:16:10;;;;;;;7.10;4.27;;;;;;;20.18;nan;100436.94;5020726;28;20417;-79
2022/10/28 06:18:37;;;;;;;8.70;3.80;;;;;;;20.17;nan;100444.63;5030312;28;20053;-80
2022/10/28 06:21:05;;;;;;;8.75;3.63;;;;;;;20.18;nan;100448.25;5042058;28;20465;-80
2022/10/28 06:23:32;;;;;;;10.20;3.67;;;;;;;20.21;nan;100456.00;5022049;28;20057;-80
2022/10/28 06:26:00;;;;;;;8.73;3.78;;;;;;;20.20;nan;100449.53;5028640;28;20057;-80
2022/10/28 06:28:29;;;;;;;10.13;3.83;;;;;;;20.18;nan;100456.75;5030310;28;20054;-80
2022/10/28 06:31:03;;;;;;;11.10;3.50;;;;;;;20.26;nan;100453.66;5020091;28;20408;-80
2022/10/28 06:33:30;;;;;;;11.68;3.35;;;;;;;20.34;nan;100456.59;5030855;28;20625;-80
2022/10/28 06:35:57;;;;;;;11.30;3.60;;;;;;;20.38;nan;100463.94;5029580;28;20050;-80
2022/10/28 06:38:25;;;;;;;11.82;3.70;;;;;;;20.55;nan;100458.91;5030653;28;20057;-80
2022/10/28 06:40:53;;;;;;;9.18;3.72;;;;;;;20.62;nan;100465.53;5025766;28;20493;-80
2022/10/28 06:43:20;;;;;;;8.05;3.47;;;;;;;20.73;nan;100460.00;5030234;28;20065;-80
2022/10/28 06:45:52;;;;;;;10.45;3.80;;;;;;;20.87;nan;100462.19;5029832;28;20053;-80
2022/10/28 06:48:21;;;;;;;13.15;3.53;;;;;;;20.87;nan;100465.88;5029740;28;20053;-80
2022/10/28 06:50:49;;;;;;;7.60;3.50;;;;;;;21.01;nan;100464.41;5029873;28;20521;-80
2022/10/28 06:53:17;;;;;;;7.78;3.28;;;;;;;21.19;nan;100473.13;5030956;28;20505;-80
2022/10/28 06:55:47;;;;;;;8.68;3.97;;;;;;;21.23;nan;100469.13;5030037;28;20068;-79
2022/10/28 06:58:14;;;;;;;10.55;3.42;;;;;;;21.51;nan;100455.69;5031700;28;20064;-79
2022/10/28 07:00:42;;;;;;;9.77;3.75;;;;;;;21.77;nan;100461.16;5031700;28;20395;-80
2022/10/28 07:03:10;;;;;;;11.95;3.58;;;;;;;21.97;nan;100461.75;5025532;28;20060;-80
2022/10/28 07:05:39;;;;;;;8.57;3.33;;;;;;;21.92;nan;100456.44;5014811;28;20061;-81
2022/10/28 07:08:08;;;;;;;10.63;3.63;;;;;;;21.91;nan;100460.50;5020196;28;20062;-81
2022/10/28 07:10:35;;;;;;;12.77;3.88;;;;;;;21.88;nan;100479.13;5013806;28;20054;-80
2022/10/28 07:13:05;;;;;;;8.15;4.15;;;;;;;21.86;nan;100480.72;5021263;28;20061;-79
2022/10/28 07:15:35;;;;;;;8.82;3.78;;;;;;;21.92;nan;100481.16;5012385;28;20057;-79
2022/10/28 07:18:03;;;;;;;10.02;3.50;;;;;;;21.86;nan;100487.19;5013078;28;20509;-80
2022/10/28 07:20:31;;;;;;;6.97;2.95;;;;;;;22.01;nan;100487.31;5012359;28;20841;-81
2022/10/28 07:23:01;;;;;;;10.13;3.53;;;;;;;22.09;nan;100492.66;5010565;28;20642;-79
2022/10/28 07:25:30;;;;;;;8.80;3.22;;;;;;;22.13;nan;100489.03;5015596;28;20049;-80
2022/10/28 07:27:58;;;;;;;14.18;3.38;;;;;;;22.38;nan;100492.09;5017537;28;20049;-80
2022/10/28 07:30:25;;;;;;;9.95;3.25;;;;;;;22.37;nan;100493.31;5014837;28;20062;-80
2022/10/28 07:32:52;;;;;;;9.40;3.00;;;;;;;22.60;nan;100502.38;5017175;28;20062;-80
2022/10/28 07:35:20;;;;;;;9.90;3.40;;;;;;;22.81;nan;100500.88;5013862;28;20062;-80
2022/10/28 07:37:48;;;;;;;10.25;3.47;;;;;;;22.99;nan;100507.44;5012889;28;20060;-80
2022/10/28 07:40:16;;;;;;;8.02;3.15;;;;;;;23.10;nan;100496.97;5013599;28;20137;-85
2022/10/28 07:42:44;;;;;;;11.82;4.15;;;;;;;23.92;nan;100495.56;5010313;28;20491;-80
2022/10/28 07:45:11;;;;;;;9.48;3.38;;;;;;;24.57;nan;100495.53;5013551;28;20072;-82
2022/10/28 07:47:38;;;;;;;10.60;3.25;;;;;;;24.77;nan;100485.31;5022997;28;20062;-81
2022/10/28 07:50:07;;;;;;;8.35;3.35;;;;;;;25.44;nan;100479.75;5012958;28;20054;-80
2022/10/28 07:52:35;;;;;;;10.65;2.92;;;;;;;25.51;nan;100485.41;5020033;28;20050;-81
2022/10/28 07:55:03;;;;;;;9.02;3.13;;;;;;;25.50;nan;100484.59;5016963;28;20391;-80
2022/10/28 07:57:33;;;;;;;18.20;4.05;;;;;;;25.38;nan;100487.94;5017829;28;20069;-82
2022/10/28 08:00:00;;;;;;;8.48;3.35;;;;;;;25.69;nan;100493.84;5017688;28;20050;-82
2022/10/28 08:02:28;;;;;;;8.90;3.40;;;;;;;25.82;nan;100477.06;5018343;28;20042;-80
2022/10/28 08:04:55;;;;;;;12.05;3.47;;;;;;;27.01;nan;100491.84;5032490;28;20050;-80
2022/10/28 08:07:28;;;;;;;15.10;3.58;;;;;;;26.90;nan;100482.59;5035902;28;20068;-81
2022/10/28 08:10:02;;;;;;;10.68;3.50;;;;;;;26.66;nan;100482.44;5029013;28;20053;-81
2022/10/28 08:12:30;;;;;;;7.38;3.10;;;;;;;26.97;nan;100485.34;5024771;28;20049;-82
2022/10/28 08:14:57;;;;;;;13.65;3.45;;;;;;;27.39;nan;100479.53;5031649;28;20517;-82
2022/10/28 08:17:25;;;;;;;12.38;3.80;;;;;;;27.35;nan;100481.63;5032817;28;20054;-81
2022/10/28 08:19:52;;;;;;;9.25;3.33;;;;;;;26.84;nan;100490.03;5030643;28;20057;-80
2022/10/28 08:22:22;;;;;;;11.68;3.63;;;;;;;26.58;nan;100495.19;5032145;28;20053;-81
2022/10/28 08:24:50;;;;;;;9.43;3.45;;;;;;;26.21;nan;100498.78;5032136;28;20453;-79
2022/10/28 08:27:20;;;;;;;8.57;3.08;;;;;;;26.28;nan;100485.25;5029028;28;20057;-80
2022/10/28 08:29:54;;;;;;;10.25;3.55;;;;;;;26.58;nan;100488.66;5032074;28;20058;-81
2022/10/28 08:32:21;;;;;;;9.55;3.50;;;;;;;27.25;nan;100481.34;5030883;28;20057;-81
2022/10/28 08:34:49;;;;;;;11.38;3.28;;;;;;;27.37;nan;100485.69;5032060;28;20049;-81
2022/10/28 08:37:16;;;;;;;10.77;3.33;;;;;;;28.18;nan;100484.88;5032434;28;20061;-81
2022/10/28 08:39:43;;;;;;;9.25;3.58;;;;;;;28.34;nan;100487.81;5031643;28;20264;-81
2022/10/28 08:42:28;;;;;;;7.72;3.38;;;;;;;28.80;nan;100488.22;5031782;28;20057;-81
2022/10/28 08:45:22;;;;;;;8.82;3.28;;;;;;;29.06;nan;100482.78;5033080;28;20516;-81
2022/10/28 08:48:17;;;;;;;5.90;3.05;;;;;;;29.25;nan;100481.19;5032283;28;20410;-79
2022/10/28 08:50:48;;;;;;;8.15;3.35;;;;;;;29.77;nan;100479.63;5028074;28;20418;-81
2022/10/28 08:53:21;;;;;;;11.40;2.90;;;;;;;29.58;nan;100475.53;5031114;28;20061;-80
2022/10/28 08:55:52;;;;;;;7.25;3.30;;;;;;;28.90;nan;100472.06;5029301;28;20061;-79
2022/10/28 08:58:25;;;;;;;9.30;3.33;;;;;;;28.79;nan;100471.47;5031285;28;20076;-79
2022/10/28 09:00:55;;;;;;;11.40;3.75;;;;;;;29.03;nan;100469.34;5031275;28;20061;-83
2022/10/28 09:03:25;;;;;;;9.65;3.85;;;;;;;28.70;nan;100469.97;5028564;28;20057;-83
2022/10/28 09:05:57;;;;;;;8.07;3.42;;;;;;;28.60;nan;100465.28;5036013;28;20057;-82
2022/10/28 09:08:27;;;;;;;9.35;3.42;;;;;;;28.68;nan;100461.00;5030229;28;20057;-81
2022/10/28 09:11:03;;;;;;;8.65;3.30;;;;;;;28.66;nan;100460.66;5031542;28;20053;-81
2022/10/28 09:13:45;;;;;;;9.30;3.17;;;;;;;29.25;nan;100461.09;5030925;28;21325;-81
2022/10/28 09:16:23;;;;;;;6.38;3.22;;;;;;;29.54;nan;100459.19;5028901;28;20490;-82
2022/10/28 09:18:52;;;;;;;10.13;3.60;;;;;;;30.27;nan;100456.16;5025960;28;20391;-81
2022/10/28 09:21:25;;;;;;;9.75;3.80;;;;;;;31.24;nan;100455.53;5030929;28;20400;-81
2022/10/28 09:23:56;;;;;;;10.13;4.63;;;;;;;32.29;nan;100453.78;5031340;28;20061;-81
2022/10/28 09:26:37;;;;;;;9.15;3.70;;;;;;;33.97;nan;100450.19;5029931;28;20053;-81
2022/10/28 09:29:25;;;;;;;6.30;3.13;;;;;;;35.13;nan;100454.59;5031104;28;20531;-82
2022/10/28 09:32:00;;;;;;;6.55;3.08;;;;;;;35.76;nan;100443.31;5024938;28;20066;-82
2022/10/28 09:34:35;;;;;;;10.55;3.30;;;;;;;36.34;nan;100442.00;5030162;28;20062;-82
2022/10/28 09:37:11;;;;;;;11.32;3.25;;;;;;;37.33;nan;100450.78;5036211;28;20409;-82
2022/10/28 09:39:42;;;;;;;11.38;3.80;;;;;;;36.90;nan;100447.38;5032734;28;20064;-82
2022/10/28 09:42:17;;;;;;;8.35;3.50;;;;;;;37.81;nan;100438.88;5032867;28;20054;-81
2022/10/28 09:44:49;;;;;;;8.85;3.35;;;;;;;37.83;nan;100438.38;5034604;28;20064;-83
2022/10/28 09:47:22;;;;;;;10.50;3.53;;;;;;;38.43;nan;100445.56;5036330;28;20057;-82
2022/10/28 09:49:51;;;;;;;9.68;3.30;;;;;;;38.25;nan;100449.56;5037636;28;20053;-82
2022/10/28 09:52:23;;;;;;;8.38;3.10;;;;;;;38.49;nan;100442.72;5029609;28;20054;-83
2022/10/28 09:54:52;;;;;;;6.13;3.13;;;;;;;39.44;nan;100433.41;5038282;28;20061;-82
2022/10/28 09:57:20;;;;;;;7.93;2.90;;;;;;;39.10;nan;100436.81;5028648;28;20060;-83
2022/10/28 09:59:47;;;;;;;;;;;;;;;37.26;nan;100439.56;5031269;28;20057;-81
2022/10/28 10:02:28;;;;;;;9.00;3.75;;;;;;;37.80;nan;100430.66;5030644;28;19921;-82
2022/10/28 10:04:56;;;;;;;14.32;4.22;;;;;;;37.96;nan;100438.84;5023528;28;20069;-84
2022/10/28 10:07:32;;;;;;;12.23;3.33;;;;;;;36.40;nan;100438.44;5026987;28;20053;-83
2022/10/28 10:10:04;;;;;;;15.48;3.63;;;;;;;35.98;nan;100438.03;5028873;28;20064;-82
2022/10/28 10:12:34;;;;;;;11.90;3.38;;;;;;;36.19;nan;100441.16;5023701;28;20054;-82
2022/10/28 10:15:05;;;;;;;7.13;3.20;;;;;;;36.22;nan;100437.25;5021478;28;20050;-81
2022/10/28 10:17:40;;;;;;;10.57;3.42;;;;;;;36.60;nan;100441.47;5027110;28;20072;-81
2022/10/28 10:20:09;;;;;;;9.35;3.35;;;;;;;36.42;nan;100444.53;5015759;28;20069;-81
2022/10/28 10:22:38;;;;;;;10.43;3.50;;;;;;;36.43;nan;100443.22;5029651;28;20152;-84
2022/10/28 10:25:23;;;;;;;9.98;3.33;;;;;;;35.66;nan;100454.16;5015256;28;20061;-84
2022/10/28 10:27:51;;;;;;;9.02;3.03;;;;;;;33.95;nan;100446.97;5022296;28;20054;-86
2022/10/28 10:30:23;;;;;;;7.38;3.63;;;;;;;33.90;nan;100453.41;5023328;28;20456;-84
2022/10/28 10:32:52;;;;;;;7.38;3.10;;;;;;;33.32;nan;100448.34;5027352;28;20045;-82
2022/10/28 10:35:24;;;;;;;7.45;2.80;;;;;;;32.89;nan;100453.66;5015395;28;20157;-85
2022/10/28 10:37:53;;;;;;;10.40;3.40;;;;;;;32.19;nan;100470.16;5035982;28;20058;-84
2022/10/28 10:40:24;;;;;;;8.80;2.75;;;;;;;31.49;nan;100461.31;5035606;28;20069;-84
2022/10/28 10:42:52;;;;;;;9.65;2.97;;;;;;;31.51;nan;100458.00;5035992;28;20053;-84
2022/10/28 10:45:25;;;;;;;7.07;3.50;;;;;;;31.86;nan;100456.03;5035763;28;20057;-83
2022/10/28 10:48:11;;;;;;;10.43;3.45;;;;;;;31.35;nan;100456.00;5036068;28;20084;-84
2022/10/28 10:50:39;;;;;;;9.40;3.33;;;;;;;30.99;nan;100448.44;5027756;28;20554;-86
2022/10/28 10:53:16;;;;;;;11.33;3.43;;;;;;;30.60;nan;100461.88;5035340;28;20061;-85
2022/10/28 10:55:50;;;;;;;12.07;3.47;;;;;;;30.69;nan;100453.41;5030430;28;20058;-86
2022/10/28 10:58:20;;;;;;;10.00;2.88;;;;;;;30.90;nan;100454.88;5036026;28;20057;-86
2022/10/28 11:00:50;;;;;;;9.65;2.90;;;;;;;31.11;nan;100452.63;5035337;28;20065;-84
2022/10/28 11:03:24;;;;;;;8.70;3.22;;;;;;;30.97;nan;100450.19;5027002;28;20065;-85
2022/10/28 11:05:54;;;;;;;9.57;3.30;;;;;;;30.67;nan;100450.16;5019850;28;20056;-83
2022/10/28 11:08:38;;;;;;;11.35;3.92;;;;;;;30.38;nan;100446.47;5035571;28;20547;-83
2022/10/28 11:11:20;;;;;;;10.52;3.65;;;;;;;30.64;nan;100438.75;5033486;28;20069;-86
2022/10/28 11:14:03;;;;;;;9.90;3.20;;;;;;;30.62;nan;100439.25;5029877;28;20057;-83
2022/10/28 11:16:31;;;;;;;9.77;3.38;;;;;;;30.56;nan;100429.56;5033434;28;20410;-82
2022/10/28 11:19:19;;;;;;;7.47;3.40;;;;;;;30.67;nan;100426.38;5030856;28;20068;-82
2022/10/28 11:21:55;;;;;;;12.10;3.55;;;;;;;30.67;nan;100421.41;5012371;28;20364;-83
2022/10/28 11:24:38;;;;;;;8.23;3.20;;;;;;;30.91;nan;100435.53;5032540;28;20060;-83
2022/10/28 11:27:15;;;;;;;8.18;3.70;;;;;;;30.71;nan;100419.25;5032849;28;20064;-82
2022/10/28 11:29:43;;;;;;;8.15;3.28;;;;;;;31.08;nan;100416.13;5029832;28;20058;-81
2022/10/28 11:32:21;;;;;;;9.40;3.47;;;;;;;31.70;nan;100408.00;5028134;28;20061;-80
2022/10/28 11:35:10;;;;;;;12.23;3.92;;;;;;;32.42;nan;100402.63;5026556;28;20060;-81
2022/10/28 11:37:51;;;;;;;7.40;3.28;;;;;;;32.31;nan;100405.91;5021065;28;20061;-83
2022/10/28 11:40:31;;;;;;;10.60;3.50;;;;;;;31.88;nan;100412.38;5024609;28;20501;-82
2022/10/28 11:43:14;;;;;;;9.65;3.15;;;;;;;31.09;nan;100397.63;5033995;28;20057;-84
2022/10/28 11:45:49;;;;;;;10.40;3.08;;;;;;;30.49;nan;100403.88;5013687;28;20533;-84
2022/10/28 11:48:29;;;;;;;9.70;3.45;;;;;;;29.71;nan;100413.28;5015287;28;20053;-82
2022/10/28 11:51:09;;;;;;;14.55;4.47;;;;;;;30.40;nan;100409.47;5015335;28;20266;-82
2022/10/28 11:53:53;;;;;;;7.97;3.20;;;;;;;31.04;nan;100407.63;5033625;28;20045;-81
2022/10/28 11:56:32;;;;;;;8.68;3.47;;;;;;;31.66;nan;100406.50;5022997;28;20486;-83